sensor_id;sensor_type;location;lat;lon;timestamp;pressure;altitude;pressure_sealevel;temperature;humidity
60375;BME280;70244;48.792;9.172;2023-08-31T04:15:37;97148.45;;;19.75;65.16
60375;BME280;70244;48.792;9.172;2023-08-31T04:18:08;97146.79;;;18.97;67.02
60375;BME280;70244;48.792;9.172;2023-08-31T04:23:25;97141.88;;;18.77;67.49
60375;BME280;70244;48.792;9.172;2023-08-31T04:25:56;97148.44;;;19.34;66.59
60375;BME280;70244;48.792;9.172;2023-08-31T04:28:27;97157.70;;;18.65;67.79
60375;BME280;70244;48.792;9.172;2023-08-31T04:30:58;97156.25;;;18.97;67.48
60375;BME280;70244;48.792;9.172;2023-08-31T04:33:28;97161.78;;;18.73;67.98
60375;BME280;70244;48.792;9.172;2023-08-31T04:35:59;97161.85;;;17.92;69.90
60375;BME280;70244;48.792;9.172;2023-08-31T04:38:30;97161.89;;;18.88;67.44
60375;BME280;70244;48.792;9.172;2023-08-31T04:41:01;97166.23;;;19.07;66.81
60375;BME280;70244;48.792;9.172;2023-08-31T04:43:31;97164.47;;;18.99;67.26
60375;BME280;70244;48.792;9.172;2023-08-31T04:46:02;97168.20;;;18.78;67.63
60375;BME280;70244;48.792;9.172;2023-08-31T04:48:33;97175.87;;;19.07;66.74
60375;BME280;70244;48.792;9.172;2023-08-31T04:51:04;97174.31;;;19.76;64.82
60375;BME280;70244;48.792;9.172;2023-08-31T04:53:35;97174.24;;;19.08;66.66
60375;BME280;70244;48.792;9.172;2023-08-31T04:56:05;97173.93;;;19.00;66.78
60375;BME280;70244;48.792;9.172;2023-08-31T04:58:36;97174.88;;;19.60;65.64
60375;BME280;70244;48.792;9.172;2023-08-31T05:01:07;97176.77;;;20.19;63.95
60375;BME280;70244;48.792;9.172;2023-08-31T05:03:38;97181.90;;;19.72;64.61
60375;BME280;70244;48.792;9.172;2023-08-31T05:06:09;97183.05;;;20.43;63.20
60375;BME280;70244;48.792;9.172;2023-08-31T05:08:39;97186.11;;;19.44;65.39
60375;BME280;70244;48.792;9.172;2023-08-31T05:11:10;97190.56;;;19.90;64.39
60375;BME280;70244;48.792;9.172;2023-08-31T05:13:41;97194.60;;;20.51;63.19
60375;BME280;70244;48.792;9.172;2023-08-31T05:16:12;97197.33;;;20.27;63.40
60375;BME280;70244;48.792;9.172;2023-08-31T05:18:42;97196.55;;;19.96;63.97
60375;BME280;70244;48.792;9.172;2023-08-31T05:21:13;97196.75;;;20.15;63.75
60375;BME280;70244;48.792;9.172;2023-08-31T05:23:44;97198.00;;;19.84;64.72
60375;BME280;70244;48.792;9.172;2023-08-31T05:26:15;97199.39;;;19.51;65.10
60375;BME280;70244;48.792;9.172;2023-08-31T05:28:45;97206.09;;;19.94;64.51
60375;BME280;70244;48.792;9.172;2023-08-31T05:31:16;97213.40;;;19.50;65.29
60375;BME280;70244;48.792;9.172;2023-08-31T05:33:47;97212.00;;;19.60;65.07
60375;BME280;70244;48.792;9.172;2023-08-31T05:36:18;97216.99;;;19.88;64.60
60375;BME280;70244;48.792;9.172;2023-08-31T05:38:50;97217.47;;;19.06;66.30
60375;BME280;70244;48.792;9.172;2023-08-31T05:41:19;97217.26;;;19.25;65.95
60375;BME280;70244;48.792;9.172;2023-08-31T05:43:50;97211.56;;;19.14;66.16
60375;BME280;70244;48.792;9.172;2023-08-31T05:46:21;97216.94;;;19.50;65.57
60375;BME280;70244;48.792;9.172;2023-08-31T05:48:51;97220.98;;;19.04;66.47
60375;BME280;70244;48.792;9.172;2023-08-31T05:51:22;97220.24;;;19.43;65.65
60375;BME280;70244;48.792;9.172;2023-08-31T05:53:53;97223.98;;;19.02;66.57
60375;BME280;70244;48.792;9.172;2023-08-31T05:56:24;97225.88;;;19.87;64.50
60375;BME280;70244;48.792;9.172;2023-08-31T05:58:55;97229.37;;;19.98;64.20
60375;BME280;70244;48.792;9.172;2023-08-31T06:01:25;97229.96;;;19.80;64.33
60375;BME280;70244;48.792;9.172;2023-08-31T06:03:56;97227.51;;;20.14;63.51
60375;BME280;70244;48.792;9.172;2023-08-31T06:06:27;97232.15;;;19.66;64.50
60375;BME280;70244;48.792;9.172;2023-08-31T06:08:58;97234.93;;;20.55;62.68
60375;BME280;70244;48.792;9.172;2023-08-31T06:11:28;97237.07;;;19.86;64.07
60375;BME280;70244;48.792;9.172;2023-08-31T06:13:59;97238.60;;;20.34;63.20
60375;BME280;70244;48.792;9.172;2023-08-31T06:16:30;97238.35;;;20.02;63.72
60375;BME280;70244;48.792;9.172;2023-08-31T06:19:01;97241.76;;;20.65;62.17
60375;BME280;70244;48.792;9.172;2023-08-31T06:21:32;97245.70;;;20.68;62.27
60375;BME280;70244;48.792;9.172;2023-08-31T06:24:02;97250.17;;;20.85;61.95
60375;BME280;70244;48.792;9.172;2023-08-31T06:26:33;97251.94;;;20.89;61.80
60375;BME280;70244;48.792;9.172;2023-08-31T06:29:04;97258.79;;;20.50;62.90
60375;BME280;70244;48.792;9.172;2023-08-31T06:31:34;97260.37;;;20.88;61.89
60375;BME280;70244;48.792;9.172;2023-08-31T06:34:05;97263.50;;;21.00;61.51
60375;BME280;70244;48.792;9.172;2023-08-31T06:36:36;97264.24;;;20.89;61.89
60375;BME280;70244;48.792;9.172;2023-08-31T06:39:07;97267.89;;;21.33;60.70
60375;BME280;70244;48.792;9.172;2023-08-31T06:41:38;97266.19;;;20.81;62.07
60375;BME280;70244;48.792;9.172;2023-08-31T06:44:08;97266.91;;;21.28;61.18
60375;BME280;70244;48.792;9.172;2023-08-31T06:46:39;97268.32;;;20.67;62.22
60375;BME280;70244;48.792;9.172;2023-08-31T06:49:10;97265.54;;;21.11;61.32
60375;BME280;70244;48.792;9.172;2023-08-31T06:51:41;97268.81;;;21.16;61.01
60375;BME280;70244;48.792;9.172;2023-08-31T06:54:11;97278.60;;;21.45;60.05
60375;BME280;70244;48.792;9.172;2023-08-31T06:56:42;97280.88;;;21.61;59.71
60375;BME280;70244;48.792;9.172;2023-08-31T06:59:13;97272.80;;;20.86;61.47
60375;BME280;70244;48.792;9.172;2023-08-31T07:01:44;97271.88;;;21.16;60.79
60375;BME280;70244;48.792;9.172;2023-08-31T07:04:14;97280.12;;;21.77;59.59
60375;BME280;70244;48.792;9.172;2023-08-31T07:06:45;97277.76;;;21.34;60.47
60375;BME280;70244;48.792;9.172;2023-08-31T07:09:16;97279.44;;;21.44;59.99
60375;BME280;70244;48.792;9.172;2023-08-31T07:11:47;97282.68;;;21.17;60.43
60375;BME280;70244;48.792;9.172;2023-08-31T07:14:17;97282.23;;;21.37;60.13
60375;BME280;70244;48.792;9.172;2023-08-31T07:16:48;97284.41;;;21.35;60.17
60375;BME280;70244;48.792;9.172;2023-08-31T07:19:19;97290.94;;;20.74;61.53
60375;BME280;70244;48.792;9.172;2023-08-31T07:21:50;97294.22;;;21.15;60.88
60375;BME280;70244;48.792;9.172;2023-08-31T07:24:20;97301.53;;;21.65;59.69
60375;BME280;70244;48.792;9.172;2023-08-31T07:26:51;97298.46;;;21.20;60.42
60375;BME280;70244;48.792;9.172;2023-08-31T07:29:22;97300.09;;;22.13;58.54
60375;BME280;70244;48.792;9.172;2023-08-31T07:31:53;97306.09;;;21.97;58.74
60375;BME280;70244;48.792;9.172;2023-08-31T07:34:23;97308.98;;;21.52;59.58
60375;BME280;70244;48.792;9.172;2023-08-31T07:36:53;97314.71;;;21.98;58.76
60375;BME280;70244;48.792;9.172;2023-08-31T07:39:24;97315.84;;;21.85;58.74
60375;BME280;70244;48.792;9.172;2023-08-31T07:41:54;97319.02;;;22.01;58.44
60375;BME280;70244;48.792;9.172;2023-08-31T07:44:25;97318.53;;;21.90;58.26
60375;BME280;70244;48.792;9.172;2023-08-31T07:46:56;97318.29;;;22.34;57.79
60375;BME280;70244;48.792;9.172;2023-08-31T07:49:27;97315.99;;;22.28;57.98
60375;BME280;70244;48.792;9.172;2023-08-31T07:51:57;97320.47;;;22.02;58.55
60375;BME280;70244;48.792;9.172;2023-08-31T07:54:28;97319.97;;;22.01;57.85
60375;BME280;70244;48.792;9.172;2023-08-31T07:56:59;97322.53;;;22.34;57.13
60375;BME280;70244;48.792;9.172;2023-08-31T07:59:30;97321.85;;;22.24;57.65
60375;BME280;70244;48.792;9.172;2023-08-31T08:02:00;97325.73;;;22.44;56.92
60375;BME280;70244;48.792;9.172;2023-08-31T08:04:31;97324.56;;;22.17;57.37
60375;BME280;70244;48.792;9.172;2023-08-31T08:07:02;97326.80;;;22.23;57.09
60375;BME280;70244;48.792;9.172;2023-08-31T08:09:33;97320.15;;;22.18;57.44
60375;BME280;70244;48.792;9.172;2023-08-31T08:12:04;97322.43;;;21.95;57.99
60375;BME280;70244;48.792;9.172;2023-08-31T08:14:34;97316.49;;;21.59;57.75
60375;BME280;70244;48.792;9.172;2023-08-31T08:17:05;97323.14;;;21.98;56.08
60375;BME280;70244;48.792;9.172;2023-08-31T08:19:36;97326.06;;;22.33;55.40
60375;BME280;70244;48.792;9.172;2023-08-31T08:22:06;97331.47;;;22.86;53.54
60375;BME280;70244;48.792;9.172;2023-08-31T08:24:37;97330.65;;;22.73;52.91
60375;BME280;70244;48.792;9.172;2023-08-31T08:27:07;97331.92;;;23.30;51.85
60375;BME280;70244;48.792;9.172;2023-08-31T08:29:38;97332.45;;;22.87;53.07
60375;BME280;70244;48.792;9.172;2023-08-31T08:32:09;97334.66;;;22.31;54.86
60375;BME280;70244;48.792;9.172;2023-08-31T08:34:40;97340.67;;;22.28;54.25
60375;BME280;70244;48.792;9.172;2023-08-31T08:37:11;97342.72;;;22.03;54.57
60375;BME280;70244;48.792;9.172;2023-08-31T08:39:41;97345.89;;;22.63;53.73
60375;BME280;70244;48.792;9.172;2023-08-31T08:42:12;97339.16;;;23.19;52.58
60375;BME280;70244;48.792;9.172;2023-08-31T08:44:43;97344.84;;;22.20;54.95
60375;BME280;70244;48.792;9.172;2023-08-31T08:47:14;97345.24;;;22.60;53.81
60375;BME280;70244;48.792;9.172;2023-08-31T08:49:44;97345.60;;;22.46;53.95
60375;BME280;70244;48.792;9.172;2023-08-31T08:52:15;97347.36;;;22.66;53.41
60375;BME280;70244;48.792;9.172;2023-08-31T08:54:46;97343.32;;;22.23;53.97
60375;BME280;70244;48.792;9.172;2023-08-31T08:57:16;97349.49;;;22.22;53.67
60375;BME280;70244;48.792;9.172;2023-08-31T08:59:47;97353.22;;;22.01;53.53
60375;BME280;70244;48.792;9.172;2023-08-31T09:02:18;97356.39;;;22.82;51.74
60375;BME280;70244;48.792;9.172;2023-08-31T09:04:49;97352.49;;;22.52;52.56
60375;BME280;70244;48.792;9.172;2023-08-31T09:07:19;97352.98;;;21.64;54.18
60375;BME280;70244;48.792;9.172;2023-08-31T09:09:52;97356.03;;;22.44;52.96
60375;BME280;70244;48.792;9.172;2023-08-31T09:12:22;97362.80;;;23.18;51.48
60375;BME280;70244;48.792;9.172;2023-08-31T09:14:57;97364.59;;;22.18;52.77
60375;BME280;70244;48.792;9.172;2023-08-31T09:17:23;97367.27;;;22.04;52.74
60375;BME280;70244;48.792;9.172;2023-08-31T09:19:58;97366.91;;;22.02;53.16
60375;BME280;70244;48.792;9.172;2023-08-31T09:22:24;97375.33;;;21.70;53.44
60375;BME280;70244;48.792;9.172;2023-08-31T09:24:55;97378.74;;;22.25;52.12
60375;BME280;70244;48.792;9.172;2023-08-31T09:27:25;97377.85;;;22.90;51.78
60375;BME280;70244;48.792;9.172;2023-08-31T09:29:56;97373.98;;;22.16;53.17
60375;BME280;70244;48.792;9.172;2023-08-31T09:32:27;97376.71;;;23.05;50.99
60375;BME280;70244;48.792;9.172;2023-08-31T09:34:57;97376.87;;;22.71;51.11
60375;BME280;70244;48.792;9.172;2023-08-31T09:37:28;97370.01;;;23.48;49.93
60375;BME280;70244;48.792;9.172;2023-08-31T09:40:02;97376.04;;;22.59;52.11
60375;BME280;70244;48.792;9.172;2023-08-31T09:42:37;97371.44;;;22.48;53.02
60375;BME280;70244;48.792;9.172;2023-08-31T09:45:00;97370.13;;;22.40;52.80
60375;BME280;70244;48.792;9.172;2023-08-31T09:47:31;97366.43;;;22.15;52.36
60375;BME280;70244;48.792;9.172;2023-08-31T09:50:03;97374.14;;;22.68;51.70
60375;BME280;70244;48.792;9.172;2023-08-31T09:52:33;97373.87;;;22.45;51.70
60375;BME280;70244;48.792;9.172;2023-08-31T09:55:04;97377.54;;;22.36;51.12
60375;BME280;70244;48.792;9.172;2023-08-31T09:57:39;97375.84;;;23.75;48.49
60375;BME280;70244;48.792;9.172;2023-08-31T10:00:06;97381.27;;;23.38;48.56
60375;BME280;70244;48.792;9.172;2023-08-31T10:02:35;97380.24;;;23.67;48.04
60375;BME280;70244;48.792;9.172;2023-08-31T10:05:06;97388.02;;;23.23;48.71
60375;BME280;70244;48.792;9.172;2023-08-31T10:07:37;97381.01;;;23.78;47.62
60375;BME280;70244;48.792;9.172;2023-08-31T10:10:08;97388.29;;;23.05;49.27
60375;BME280;70244;48.792;9.172;2023-08-31T10:12:38;97386.78;;;23.15;49.03
60375;BME280;70244;48.792;9.172;2023-08-31T10:15:10;97385.37;;;22.91;49.55
60375;BME280;70244;48.792;9.172;2023-08-31T10:17:40;97385.13;;;21.99;50.77
60375;BME280;70244;48.792;9.172;2023-08-31T10:20:12;97379.72;;;23.43;48.21
60375;BME280;70244;48.792;9.172;2023-08-31T10:22:41;97382.91;;;23.43;48.17
60375;BME280;70244;48.792;9.172;2023-08-31T10:25:12;97377.87;;;23.57;47.49
60375;BME280;70244;48.792;9.172;2023-08-31T10:27:43;97387.32;;;22.79;48.73
60375;BME280;70244;48.792;9.172;2023-08-31T10:30:15;97395.04;;;23.20;47.99
60375;BME280;70244;48.792;9.172;2023-08-31T10:32:44;97390.35;;;23.79;46.64
60375;BME280;70244;48.792;9.172;2023-08-31T10:35:15;97393.25;;;23.83;46.46
60375;BME280;70244;48.792;9.172;2023-08-31T10:37:45;97392.76;;;23.75;46.83
60375;BME280;70244;48.792;9.172;2023-08-31T10:40:16;97397.36;;;23.30;47.42
60375;BME280;70244;48.792;9.172;2023-08-31T10:43:13;97392.25;;;22.61;48.37
60375;BME280;70244;48.792;9.172;2023-08-31T10:45:20;97390.40;;;23.71;46.09
60375;BME280;70244;48.792;9.172;2023-08-31T10:47:49;97390.70;;;23.29;46.76
60375;BME280;70244;48.792;9.172;2023-08-31T10:50:21;97392.67;;;22.69;47.32
60375;BME280;70244;48.792;9.172;2023-08-31T10:52:50;97392.61;;;23.31;46.99
60375;BME280;70244;48.792;9.172;2023-08-31T10:55:23;97389.32;;;23.75;46.39
60375;BME280;70244;48.792;9.172;2023-08-31T10:57:51;97389.99;;;22.13;48.71
60375;BME280;70244;48.792;9.172;2023-08-31T11:02:55;97391.38;;;22.72;47.33
60375;BME280;70244;48.792;9.172;2023-08-31T11:05:23;97401.38;;;23.23;46.82
60375;BME280;70244;48.792;9.172;2023-08-31T11:07:54;97393.32;;;23.74;46.09
60375;BME280;70244;48.792;9.172;2023-08-31T11:10:25;97396.87;;;22.92;47.63
60375;BME280;70244;48.792;9.172;2023-08-31T11:12:55;97390.82;;;23.85;46.17
60375;BME280;70244;48.792;9.172;2023-08-31T11:15:26;97393.90;;;22.44;48.48
60375;BME280;70244;48.792;9.172;2023-08-31T11:17:56;97392.88;;;23.32;46.87
60375;BME280;70244;48.792;9.172;2023-08-31T11:20:26;97394.44;;;23.27;46.92
60375;BME280;70244;48.792;9.172;2023-08-31T11:22:57;97388.41;;;23.58;46.86
60375;BME280;70244;48.792;9.172;2023-08-31T11:25:31;97388.35;;;23.60;47.11
60375;BME280;70244;48.792;9.172;2023-08-31T11:28:05;97386.61;;;23.30;48.29
60375;BME280;70244;48.792;9.172;2023-08-31T11:30:31;97384.20;;;23.51;47.53
60375;BME280;70244;48.792;9.172;2023-08-31T11:33:03;97376.12;;;24.02;46.98
60375;BME280;70244;48.792;9.172;2023-08-31T11:35:33;97379.85;;;23.01;48.92
60375;BME280;70244;48.792;9.172;2023-08-31T11:38:02;97378.27;;;23.66;47.51
60375;BME280;70244;48.792;9.172;2023-08-31T11:40:33;97382.82;;;23.19;48.85
60375;BME280;70244;48.792;9.172;2023-08-31T11:43:04;97381.00;;;23.49;48.27
60375;BME280;70244;48.792;9.172;2023-08-31T11:45:34;97376.60;;;23.75;47.53
60375;BME280;70244;48.792;9.172;2023-08-31T11:48:05;97378.50;;;23.49;47.94
60375;BME280;70244;48.792;9.172;2023-08-31T11:50:36;97371.16;;;24.04;47.00
60375;BME280;70244;48.792;9.172;2023-08-31T11:53:06;97375.73;;;23.39;48.06
60375;BME280;70244;48.792;9.172;2023-08-31T11:58:08;97368.29;;;23.76;47.32
60375;BME280;70244;48.792;9.172;2023-08-31T12:00:38;97369.89;;;23.98;46.88
60375;BME280;70244;48.792;9.172;2023-08-31T12:03:09;97371.46;;;24.08;46.80
60375;BME280;70244;48.792;9.172;2023-08-31T12:05:44;97369.71;;;23.24;48.26
60375;BME280;70244;48.792;9.172;2023-08-31T12:08:10;97370.95;;;23.86;47.46
60375;BME280;70244;48.792;9.172;2023-08-31T12:10:42;97373.48;;;23.24;48.49
60375;BME280;70244;48.792;9.172;2023-08-31T12:13:12;97371.34;;;24.01;47.13
60375;BME280;70244;48.792;9.172;2023-08-31T12:15:43;97374.87;;;24.06;46.92
60375;BME280;70244;48.792;9.172;2023-08-31T12:18:14;97373.61;;;24.09;46.90
60375;BME280;70244;48.792;9.172;2023-08-31T12:20:45;97369.77;;;23.76;47.32
60375;BME280;70244;48.792;9.172;2023-08-31T12:23:15;97371.06;;;23.34;48.15
60375;BME280;70244;48.792;9.172;2023-08-31T12:25:47;97372.11;;;23.51;48.00
60375;BME280;70244;48.792;9.172;2023-08-31T12:28:17;97371.85;;;23.62;47.86
60375;BME280;70244;48.792;9.172;2023-08-31T12:30:48;97363.95;;;23.66;48.01
60375;BME280;70244;48.792;9.172;2023-08-31T12:33:18;97369.45;;;22.86;49.66
60375;BME280;70244;48.792;9.172;2023-08-31T12:35:48;97360.70;;;23.43;48.22
60375;BME280;70244;48.792;9.172;2023-08-31T12:38:19;97364.35;;;22.27;50.32
60375;BME280;70244;48.792;9.172;2023-08-31T12:40:49;97355.58;;;23.57;48.24
60375;BME280;70244;48.792;9.172;2023-08-31T12:43:20;97358.04;;;23.17;49.00
60375;BME280;70244;48.792;9.172;2023-08-31T12:45:51;97354.54;;;23.35;48.33
60375;BME280;70244;48.792;9.172;2023-08-31T12:48:22;97360.70;;;22.79;49.78
60375;BME280;70244;48.792;9.172;2023-08-31T12:50:52;97360.00;;;23.50;48.68
60375;BME280;70244;48.792;9.172;2023-08-31T12:53:23;97358.67;;;23.42;48.55
60375;BME280;70244;48.792;9.172;2023-08-31T12:55:54;97368.46;;;22.89;49.64
60375;BME280;70244;48.792;9.172;2023-08-31T12:58:24;97367.05;;;23.14;49.20
60375;BME280;70244;48.792;9.172;2023-08-31T13:00:58;97365.83;;;23.64;48.41
60375;BME280;70244;48.792;9.172;2023-08-31T13:03:26;97363.73;;;23.46;48.60
60375;BME280;70244;48.792;9.172;2023-08-31T13:05:56;97369.50;;;23.95;47.40
60375;BME280;70244;48.792;9.172;2023-08-31T13:08:27;97367.72;;;24.15;47.06
60375;BME280;70244;48.792;9.172;2023-08-31T13:10:58;97367.70;;;23.97;47.48
60375;BME280;70244;48.792;9.172;2023-08-31T13:13:28;97371.37;;;23.82;47.83
60375;BME280;70244;48.792;9.172;2023-08-31T13:15:59;97377.47;;;23.40;48.60
60375;BME280;70244;48.792;9.172;2023-08-31T13:18:30;97377.27;;;24.18;47.21
60375;BME280;70244;48.792;9.172;2023-08-31T13:21:01;97376.33;;;23.77;48.03
60375;BME280;70244;48.792;9.172;2023-08-31T13:23:31;97366.99;;;23.82;47.93
60375;BME280;70244;48.792;9.172;2023-08-31T13:26:02;97368.30;;;23.99;47.67
60375;BME280;70244;48.792;9.172;2023-08-31T13:28:33;97363.27;;;23.96;47.80
60375;BME280;70244;48.792;9.172;2023-08-31T13:31:03;97365.48;;;23.68;48.35
60375;BME280;70244;48.792;9.172;2023-08-31T13:33:34;97356.07;;;23.82;48.47
60375;BME280;70244;48.792;9.172;2023-08-31T13:36:05;97356.35;;;24.20;47.81
60375;BME280;70244;48.792;9.172;2023-08-31T13:38:35;97354.42;;;23.87;48.18
60375;BME280;70244;48.792;9.172;2023-08-31T13:41:06;97350.67;;;23.94;47.91
60375;BME280;70244;48.792;9.172;2023-08-31T13:43:37;97349.03;;;22.70;49.39
60375;BME280;70244;48.792;9.172;2023-08-31T13:46:08;97345.19;;;24.07;47.07
60375;BME280;70244;48.792;9.172;2023-08-31T13:48:38;97341.13;;;23.75;47.48
60375;BME280;70244;48.792;9.172;2023-08-31T13:51:09;97349.53;;;24.18;47.04
60375;BME280;70244;48.792;9.172;2023-08-31T13:53:40;97348.58;;;23.91;47.42
60375;BME280;70244;48.792;9.172;2023-08-31T13:56:11;97349.10;;;24.50;46.75
60375;BME280;70244;48.792;9.172;2023-08-31T13:58:41;97347.68;;;24.04;47.87
60375;BME280;70244;48.792;9.172;2023-08-31T14:01:12;97346.64;;;23.59;48.36
60375;BME280;70244;48.792;9.172;2023-08-31T14:03:43;97346.53;;;23.19;48.85
60375;BME280;70244;48.792;9.172;2023-08-31T14:06:14;97341.06;;;24.31;46.58
60375;BME280;70244;48.792;9.172;2023-08-31T14:08:44;97340.11;;;24.38;46.87
60375;BME280;70244;48.792;9.172;2023-08-31T14:11:15;97342.98;;;24.13;47.41
60375;BME280;70244;48.792;9.172;2023-08-31T14:13:46;97346.36;;;24.23;47.02
60375;BME280;70244;48.792;9.172;2023-08-31T14:16:16;97351.60;;;24.38;46.92
60375;BME280;70244;48.792;9.172;2023-08-31T14:18:47;97352.17;;;24.14;47.44
60375;BME280;70244;48.792;9.172;2023-08-31T14:21:18;97353.10;;;23.90;47.91
60375;BME280;70244;48.792;9.172;2023-08-31T14:23:49;97353.58;;;23.95;48.04
60375;BME280;70244;48.792;9.172;2023-08-31T14:26:19;97351.15;;;24.05;47.69
60375;BME280;70244;48.792;9.172;2023-08-31T14:28:50;97349.03;;;24.26;47.45
60375;BME280;70244;48.792;9.172;2023-08-31T14:31:21;97346.86;;;24.35;47.22
60375;BME280;70244;48.792;9.172;2023-08-31T14:33:52;97346.91;;;24.43;47.21
60375;BME280;70244;48.792;9.172;2023-08-31T14:36:22;97346.23;;;24.52;47.00
60375;BME280;70244;48.792;9.172;2023-08-31T14:38:53;97346.21;;;23.46;48.83
60375;BME280;70244;48.792;9.172;2023-08-31T14:41:24;97352.57;;;24.28;47.66
60375;BME280;70244;48.792;9.172;2023-08-31T14:43:54;97353.84;;;24.44;47.16
60375;BME280;70244;48.792;9.172;2023-08-31T14:46:25;97351.82;;;24.41;47.19
60375;BME280;70244;48.792;9.172;2023-08-31T14:48:56;97353.49;;;24.41;47.22
60375;BME280;70244;48.792;9.172;2023-08-31T14:51:26;97354.68;;;24.42;47.06
60375;BME280;70244;48.792;9.172;2023-08-31T14:53:57;97358.14;;;24.50;47.04
60375;BME280;70244;48.792;9.172;2023-08-31T14:56:28;97355.90;;;24.47;47.26
60375;BME280;70244;48.792;9.172;2023-08-31T14:58:59;97359.47;;;23.87;48.37
60375;BME280;70244;48.792;9.172;2023-08-31T15:01:29;97360.18;;;24.41;47.54
60375;BME280;70244;48.792;9.172;2023-08-31T15:04:00;97362.72;;;24.64;47.29
60375;BME280;70244;48.792;9.172;2023-08-31T15:06:31;97367.57;;;24.60;47.32
60375;BME280;70244;48.792;9.172;2023-08-31T15:09:02;97366.46;;;24.01;48.49
60375;BME280;70244;48.792;9.172;2023-08-31T15:11:32;97366.12;;;24.42;47.83
60375;BME280;70244;48.792;9.172;2023-08-31T15:14:03;97366.92;;;24.54;47.80
60375;BME280;70244;48.792;9.172;2023-08-31T15:16:34;97366.00;;;24.59;47.57
60375;BME280;70244;48.792;9.172;2023-08-31T15:19:04;97362.78;;;24.32;48.22
60375;BME280;70244;48.792;9.172;2023-08-31T15:21:35;97362.12;;;24.12;48.46
60375;BME280;70244;48.792;9.172;2023-08-31T15:24:06;97365.69;;;24.60;47.80
60375;BME280;70244;48.792;9.172;2023-08-31T15:26:36;97373.84;;;24.47;47.91
60375;BME280;70244;48.792;9.172;2023-08-31T15:29:09;97375.29;;;24.59;47.77
60375;BME280;70244;48.792;9.172;2023-08-31T15:31:38;97378.56;;;23.79;49.30
60375;BME280;70244;48.792;9.172;2023-08-31T15:34:09;97373.36;;;24.52;48.01
60375;BME280;70244;48.792;9.172;2023-08-31T15:36:39;97375.48;;;24.40;48.32
60375;BME280;70244;48.792;9.172;2023-08-31T15:39:10;97375.67;;;24.54;48.10
60375;BME280;70244;48.792;9.172;2023-08-31T15:41:41;97376.65;;;24.36;48.49
60375;BME280;70244;48.792;9.172;2023-08-31T15:44:11;97371.89;;;24.39;48.41
60375;BME280;70244;48.792;9.172;2023-08-31T15:46:42;97374.14;;;24.66;48.04
60375;BME280;70244;48.792;9.172;2023-08-31T15:49:13;97375.84;;;24.44;48.54
60375;BME280;70244;48.792;9.172;2023-08-31T15:51:44;97375.32;;;24.27;48.95
60375;BME280;70244;48.792;9.172;2023-08-31T15:54:14;97374.38;;;24.53;48.44
60375;BME280;70244;48.792;9.172;2023-08-31T15:56:45;97373.25;;;24.52;48.53
60375;BME280;70244;48.792;9.172;2023-08-31T15:59:16;97371.85;;;23.84;49.91
60375;BME280;70244;48.792;9.172;2023-08-31T16:01:46;97375.78;;;24.28;49.04
60375;BME280;70244;48.792;9.172;2023-08-31T16:04:17;97373.40;;;24.31;49.16
60375;BME280;70244;48.792;9.172;2023-08-31T16:06:48;97371.49;;;24.29;49.10
60375;BME280;70244;48.792;9.172;2023-08-31T16:09:19;97372.06;;;23.67;50.56
60375;BME280;70244;48.792;9.172;2023-08-31T16:11:49;97370.86;;;24.27;49.22
60375;BME280;70244;48.792;9.172;2023-08-31T16:14:19;97373.43;;;23.94;49.88
60375;BME280;70244;48.792;9.172;2023-08-31T16:16:50;97378.53;;;23.51;50.79
60375;BME280;70244;48.792;9.172;2023-08-31T16:19:20;97379.68;;;24.11;49.77
60375;BME280;70244;48.792;9.172;2023-08-31T16:21:51;97380.07;;;24.04;49.86
60375;BME280;70244;48.792;9.172;2023-08-31T16:24:21;97384.65;;;24.45;49.12
60375;BME280;70244;48.792;9.172;2023-08-31T16:26:52;97383.42;;;24.53;49.06
60375;BME280;70244;48.792;9.172;2023-08-31T16:29:23;97386.75;;;24.54;48.99
60375;BME280;70244;48.792;9.172;2023-08-31T16:31:53;97389.50;;;24.53;49.11
60375;BME280;70244;48.792;9.172;2023-08-31T16:34:24;97389.43;;;24.54;49.11
60375;BME280;70244;48.792;9.172;2023-08-31T16:36:55;97389.86;;;24.49;49.40
60375;BME280;70244;48.792;9.172;2023-08-31T16:39:26;97388.45;;;24.15;50.23
60375;BME280;70244;48.792;9.172;2023-08-31T16:41:56;97387.71;;;24.54;49.52
60375;BME280;70244;48.792;9.172;2023-08-31T16:44:27;97389.08;;;24.49;49.57
60375;BME280;70244;48.792;9.172;2023-08-31T16:46:58;97387.05;;;24.49;49.57
60375;BME280;70244;48.792;9.172;2023-08-31T16:49:28;97390.15;;;24.47;49.63
60375;BME280;70244;48.792;9.172;2023-08-31T16:51:59;97387.86;;;24.53;49.67
60375;BME280;70244;48.792;9.172;2023-08-31T16:54:30;97389.42;;;24.58;49.59
60375;BME280;70244;48.792;9.172;2023-08-31T16:57:00;97389.62;;;24.25;50.54
60375;BME280;70244;48.792;9.172;2023-08-31T16:59:31;97390.33;;;23.80;51.24
60375;BME280;70244;48.792;9.172;2023-08-31T17:02:02;97389.64;;;23.54;52.07
60375;BME280;70244;48.792;9.172;2023-08-31T17:04:33;97388.31;;;24.23;50.45
60375;BME280;70244;48.792;9.172;2023-08-31T17:07:04;97382.35;;;24.07;50.94
60375;BME280;70244;48.792;9.172;2023-08-31T17:09:34;97384.41;;;23.79;51.86
60375;BME280;70244;48.792;9.172;2023-08-31T17:12:06;97379.56;;;23.83;51.51
60375;BME280;70244;48.792;9.172;2023-08-31T17:14:35;97379.13;;;23.65;52.55
60375;BME280;70244;48.792;9.172;2023-08-31T17:17:06;97378.19;;;23.42;52.93
60375;BME280;70244;48.792;9.172;2023-08-31T17:19:37;97378.41;;;23.35;53.39
60375;BME280;70244;48.792;9.172;2023-08-31T17:22:08;97377.00;;;23.34;53.01
60375;BME280;70244;48.792;9.172;2023-08-31T17:24:38;97371.80;;;23.95;51.24
60375;BME280;70244;48.792;9.172;2023-08-31T17:27:09;97373.76;;;23.32;52.75
60375;BME280;70244;48.792;9.172;2023-08-31T17:29:40;97374.46;;;23.22;53.08
60375;BME280;70244;48.792;9.172;2023-08-31T17:32:10;97376.03;;;23.12;53.57
60375;BME280;70244;48.792;9.172;2023-08-31T17:34:41;97381.42;;;22.90;54.12
60375;BME280;70244;48.792;9.172;2023-08-31T17:37:12;97380.62;;;23.20;53.26
60375;BME280;70244;48.792;9.172;2023-08-31T17:39:43;97371.57;;;23.27;52.94